createdAt,value
2018-04-29T00:00:44.309Z,12.43
2018-04-29T00:01:44.137Z,12.37
2018-04-29T00:02:44.332Z,12.29
2018-04-29T00:04:25.287Z,12.25
2018-04-29T00:05:25.544Z,12.24
2018-04-29T00:06:25.463Z,12.22
2018-04-29T00:07:25.462Z,12.22
2018-04-29T00:08:25.455Z,12.20
2018-04-29T00:09:25.665Z,12.18
2018-04-29T00:10:46.251Z,12.18
2018-04-29T00:11:46.476Z,12.18
2018-04-29T00:12:46.708Z,12.17
2018-04-29T00:13:46.648Z,12.13
2018-04-29T00:14:46.290Z,12.13
2018-04-29T00:15:46.048Z,12.12
2018-04-29T00:16:46.793Z,12.12
2018-04-29T00:17:46.750Z,12.10
2018-04-29T00:18:46.280Z,12.09
2018-04-29T00:19:46.926Z,12.10
2018-04-29T00:20:46.508Z,12.13
2018-04-29T00:21:46.195Z,12.13
2018-04-29T00:22:46.851Z,12.13
2018-04-29T00:23:46.445Z,12.12
2018-04-29T00:24:46.179Z,12.09
2018-04-29T00:25:45.945Z,12.07
2018-04-29T00:27:27.516Z,12.06
2018-04-29T00:28:49.141Z,12.06
2018-04-29T00:29:50.286Z,12.06
2018-04-29T00:30:50.042Z,12.07
2018-04-29T00:31:49.761Z,12.07
2018-04-29T00:32:49.336Z,12.06
2018-04-29T00:33:50.422Z,12.03
2018-04-29T00:34:49.155Z,12.02
2018-04-29T00:35:49.836Z,12.02
2018-04-29T00:36:49.559Z,12.00
2018-04-29T00:37:54.427Z,12.03
2018-04-29T00:38:50.002Z,12.04
2018-04-29T00:39:49.506Z,12.03
2018-04-29T00:40:49.085Z,12.03
2018-04-29T00:41:50.028Z,12.02
2018-04-29T00:42:50.019Z,12.00
2018-04-29T00:43:50.109Z,12.00
2018-04-29T00:44:50.034Z,11.99
2018-04-29T00:45:50.118Z,11.97
2018-04-29T00:46:49.905Z,11.94
2018-04-29T00:47:49.651Z,11.91
2018-04-29T00:49:09.776Z,11.91
2018-04-29T00:50:31.235Z,11.88
2018-04-29T00:51:31.136Z,11.88
2018-04-29T00:52:31.114Z,11.87
2018-04-29T00:53:32.155Z,11.84
2018-04-29T00:54:30.815Z,11.80
2018-04-29T00:55:32.001Z,11.80
2018-04-29T00:56:31.510Z,11.78
2018-04-29T00:57:31.639Z,11.75
2018-04-29T00:58:52.595Z,11.73
2018-04-29T00:59:53.569Z,11.70
2018-04-29T01:00:53.867Z,11.72
2018-04-29T01:01:54.521Z,11.68
2018-04-29T01:02:53.094Z,11.65
2018-04-29T01:04:16.218Z,11.59
2018-04-29T01:05:16.588Z,11.52
2018-04-29T01:06:16.826Z,11.51
2018-04-29T01:07:16.779Z,11.47
2018-04-29T01:08:16.775Z,11.43
2018-04-29T01:09:17.028Z,11.43
2018-04-29T01:10:17.870Z,11.41
2018-04-29T01:11:16.854Z,11.40
2018-04-29T01:12:16.705Z,11.36
2018-04-29T01:13:16.536Z,11.36
2018-04-29T01:14:36.588Z,11.35
2018-04-29T01:15:37.705Z,11.35
2018-04-29T01:16:37.645Z,11.33
2018-04-29T01:17:37.318Z,11.36
2018-04-29T01:18:36.899Z,11.40
2018-04-29T01:19:37.983Z,11.43
2018-04-29T01:20:36.751Z,11.45
2018-04-29T01:21:37.755Z,11.44
2018-04-29T01:22:37.650Z,11.43
2018-04-29T01:23:37.738Z,11.43
2018-04-29T01:24:37.356Z,11.43
2018-04-29T01:25:37.601Z,11.43
2018-04-29T01:26:40.749Z,11.43
2018-04-29T01:27:58.268Z,11.44
2018-04-29T01:28:58.816Z,11.44
2018-04-29T01:29:58.584Z,11.41
2018-04-29T01:30:58.224Z,11.40
2018-04-29T01:31:58.966Z,11.37
2018-04-29T01:32:58.527Z,11.36
2018-04-29T01:33:58.176Z,11.35
2018-04-29T01:34:58.855Z,11.33
2018-04-29T01:35:58.820Z,11.33
2018-04-29T01:36:59.055Z,11.33
2018-04-29T01:37:59.302Z,11.33
2018-04-29T01:38:59.334Z,11.32
2018-04-29T01:39:59.728Z,11.29
2018-04-29T01:40:58.678Z,11.27
2018-04-29T01:41:58.621Z,11.27
2018-04-29T01:43:19.061Z,11.26
2018-04-29T01:44:19.765Z,11.25
2018-04-29T01:45:19.690Z,11.25
2018-04-29T01:46:19.152Z,11.17
2018-04-29T01:47:20.015Z,11.14
2018-04-29T01:48:20.499Z,11.11
2018-04-29T01:49:19.533Z,11.07
2018-04-29T01:50:19.714Z,11.02
2018-04-29T01:51:19.516Z,11.02
2018-04-29T01:52:41.461Z,10.99
2018-04-29T01:53:42.417Z,10.94
2018-04-29T01:54:41.967Z,10.92
2018-04-29T01:56:30.959Z,10.86
2018-04-29T01:57:32.005Z,10.81
2018-04-29T01:58:30.730Z,10.79
2018-04-29T01:59:32.026Z,10.78
2018-04-29T02:00:32.055Z,10.75
2018-04-29T02:01:35.624Z,10.72
2018-04-29T02:02:32.391Z,10.68
2018-04-29T02:03:31.437Z,10.64
2018-04-29T02:04:31.134Z,10.61
2018-04-29T02:05:31.353Z,10.57
2018-04-29T02:06:30.954Z,10.56
2018-04-29T02:07:31.904Z,10.54
2018-04-29T02:08:31.811Z,10.53
2018-04-29T02:09:52.299Z,10.54
2018-04-29T02:10:54.693Z,10.53
2018-04-29T02:11:53.942Z,10.48
2018-04-29T02:12:53.133Z,10.48
2018-04-29T02:13:53.344Z,10.51
2018-04-29T02:14:52.059Z,10.49
2018-04-29T02:15:52.734Z,10.46
2018-04-29T02:16:52.302Z,10.42
2018-04-29T02:17:54.447Z,10.35
2018-04-29T02:19:34.456Z,10.34
2018-04-29T02:20:55.013Z,10.34
2018-04-29T02:21:54.806Z,10.33
2018-04-29T02:22:56.272Z,10.33
2018-04-29T02:23:55.672Z,10.30
2018-04-29T02:25:16.597Z,10.28
2018-04-29T02:26:17.485Z,10.28
2018-04-29T02:27:17.383Z,10.28
2018-04-29T02:28:19.015Z,10.31
2018-04-29T02:29:17.730Z,10.33
2018-04-29T02:30:17.858Z,10.37
2018-04-29T02:31:17.288Z,10.37
2018-04-29T02:32:16.956Z,10.38
2018-04-29T02:33:17.103Z,10.38
2018-04-29T02:34:17.177Z,10.35
2018-04-29T02:35:16.918Z,10.33
2018-04-29T02:36:17.216Z,10.26
2018-04-29T02:37:17.398Z,10.28
2018-04-29T02:38:17.452Z,10.26
2018-04-29T02:39:17.751Z,10.28
2018-04-29T02:40:17.307Z,10.30
2018-04-29T02:41:17.433Z,10.34
2018-04-29T02:42:59.306Z,10.37
2018-04-29T02:43:59.374Z,10.35
2018-04-29T02:44:59.174Z,10.34
2018-04-29T02:45:59.035Z,10.33
2018-04-29T02:46:59.545Z,10.30
2018-04-29T02:47:59.794Z,10.28
2018-04-29T02:48:59.406Z,10.26
2018-04-29T02:49:59.678Z,10.26
2018-04-29T02:51:20.216Z,10.23
2018-04-29T02:52:19.853Z,10.22
2018-04-29T02:54:02.716Z,10.22
2018-04-29T02:55:44.316Z,10.19
2018-04-29T02:56:44.892Z,10.20
2018-04-29T02:57:44.786Z,10.19
2018-04-29T02:58:44.557Z,10.16
2018-04-29T02:59:44.256Z,10.15
2018-04-29T03:00:45.432Z,10.16
2018-04-29T03:01:44.763Z,10.15
2018-04-29T03:02:45.809Z,10.13
2018-04-29T03:03:45.114Z,10.12
2018-04-29T03:04:45.403Z,10.10
2018-04-29T03:05:45.351Z,10.05
2018-04-29T03:06:44.507Z,10.04
2018-04-29T03:07:44.697Z,10.02
2018-04-29T03:08:44.868Z,9.98
2018-04-29T03:09:44.929Z,9.94
2018-04-29T03:10:44.907Z,9.94
2018-04-29T03:11:44.497Z,9.86
2018-04-29T03:12:50.609Z,9.83
2018-04-29T03:13:44.501Z,9.77
2018-04-29T03:14:44.478Z,9.73
2018-04-29T03:15:44.479Z,9.72
2018-04-29T03:16:44.331Z,9.68
2018-04-29T03:18:26.701Z,9.64
2018-04-29T03:19:27.413Z,9.59
2018-04-29T03:20:48.153Z,9.56
2018-04-29T03:21:49.011Z,9.54
2018-04-29T03:22:49.012Z,9.47
2018-04-29T03:23:48.888Z,9.44
2018-04-29T03:24:48.544Z,9.43
2018-04-29T03:25:48.311Z,9.40
2018-04-29T03:26:47.765Z,9.40
2018-04-29T03:28:29.520Z,9.37
2018-04-29T03:29:50.710Z,9.34
2018-04-29T03:30:51.260Z,9.36
2018-04-29T03:31:51.119Z,9.37
2018-04-29T03:32:51.081Z,9.37
2018-04-29T03:34:12.429Z,9.32
2018-04-29T03:35:33.412Z,9.25
2018-04-29T03:36:56.564Z,9.22
2018-04-29T03:37:57.440Z,9.23
2018-04-29T03:38:57.405Z,9.21
2018-04-29T03:40:18.045Z,9.13
2018-04-29T03:41:17.726Z,9.14
2018-04-29T03:42:18.244Z,9.16
2018-04-29T03:43:17.756Z,9.18
2018-04-29T03:44:18.356Z,9.18
2018-04-29T03:45:18.325Z,9.18
2018-04-29T03:46:38.054Z,9.14
2018-04-29T03:47:58.835Z,9.08
2018-04-29T03:48:59.880Z,9.08
2018-04-29T03:51:01.529Z,9.02
2018-04-29T03:52:02.439Z,8.99
2018-04-29T03:53:02.407Z,8.97
2018-04-29T03:54:02.030Z,8.97
2018-04-29T03:55:01.959Z,8.92
2018-04-29T03:56:02.987Z,8.91
2018-04-29T03:57:22.767Z,8.84
2018-04-29T03:58:23.337Z,8.78
2018-04-29T03:59:23.352Z,8.73
2018-04-29T04:00:23.296Z,8.70
2018-04-29T04:01:22.972Z,8.67
2018-04-29T04:02:22.717Z,8.64
2018-04-29T04:03:23.677Z,8.63
2018-04-29T04:04:23.379Z,8.61
2018-04-29T04:05:23.324Z,8.63
2018-04-29T04:06:23.143Z,8.64
2018-04-29T04:07:22.878Z,8.67
2018-04-29T04:08:22.657Z,8.67
2018-04-29T04:09:23.281Z,8.67
2018-04-29T04:10:43.777Z,8.70
2018-04-29T04:11:43.922Z,8.70
2018-04-29T04:12:44.177Z,8.71
2018-04-29T04:13:43.943Z,8.71
2018-04-29T04:14:43.983Z,8.71
2018-04-29T04:16:26.514Z,8.69
2018-04-29T04:17:27.327Z,8.66
2018-04-29T04:18:27.022Z,8.67
2018-04-29T04:19:27.042Z,8.67
2018-04-29T04:20:26.703Z,8.69
2018-04-29T04:21:48.241Z,8.71
2018-04-29T04:22:47.967Z,8.74
2018-04-29T04:23:48.988Z,8.78
2018-04-29T04:24:49.122Z,8.81
2018-04-29T04:25:49.244Z,8.85
2018-04-29T04:26:48.369Z,8.87
2018-04-29T04:27:48.555Z,8.89
2018-04-29T04:28:48.742Z,8.91
2018-04-29T04:29:48.452Z,8.92
2018-04-29T04:31:08.870Z,9.00
2018-04-29T04:32:09.854Z,9.03
2018-04-29T04:33:09.972Z,9.04
2018-04-29T04:34:10.128Z,9.04
2018-04-29T04:35:29.186Z,9.06
2018-04-29T04:36:29.845Z,9.10
2018-04-29T04:37:29.554Z,9.11
2018-04-29T04:38:29.680Z,9.13
2018-04-29T04:39:29.370Z,9.19
2018-04-29T04:40:30.099Z,9.18
2018-04-29T04:41:29.693Z,9.21
2018-04-29T04:42:49.808Z,9.25
2018-04-29T04:43:50.684Z,9.31
2018-04-29T04:44:50.297Z,9.37
2018-04-29T04:46:11.550Z,9.41
2018-04-29T04:47:11.680Z,9.44
2018-04-29T04:48:11.291Z,9.48
2018-04-29T04:49:12.458Z,9.55
2018-04-29T04:50:11.324Z,9.59
2018-04-29T04:51:12.401Z,9.61
2018-04-29T04:52:11.629Z,9.65
2018-04-29T04:53:11.725Z,9.69
2018-04-29T04:54:11.506Z,9.73
2018-04-29T04:55:11.504Z,9.77
2018-04-29T04:56:12.085Z,9.80
2018-04-29T04:57:12.209Z,9.84
2018-04-29T04:58:11.880Z,9.86
2018-04-29T04:59:32.084Z,9.95
2018-04-29T05:00:32.755Z,10.01
2018-04-29T05:01:53.125Z,10.12
2018-04-29T05:02:52.872Z,10.19
2018-04-29T05:03:53.953Z,10.23
2018-04-29T05:04:54.408Z,10.31
2018-04-29T05:06:34.613Z,10.38
2018-04-29T05:07:34.772Z,10.41
2018-04-29T05:08:34.831Z,10.46
2018-04-29T05:09:57.828Z,10.51
2018-04-29T05:10:57.583Z,10.53
2018-04-29T05:11:58.648Z,10.56
2018-04-29T05:12:58.395Z,10.59
2018-04-29T05:13:58.585Z,10.63
2018-04-29T05:14:58.579Z,10.68
2018-04-29T05:15:58.378Z,10.74
2018-04-29T05:16:58.445Z,10.76
2018-04-29T05:17:57.946Z,10.79
2018-04-29T05:18:58.191Z,10.86
2018-04-29T05:19:57.904Z,10.90
2018-04-29T05:20:57.844Z,10.96
2018-04-29T05:21:58.148Z,10.97
2018-04-29T05:22:58.407Z,10.99
2018-04-29T05:23:58.319Z,10.96
2018-04-29T05:24:58.415Z,10.96
2018-04-29T05:25:59.124Z,10.99
2018-04-29T05:26:58.191Z,10.99
2018-04-29T05:27:57.777Z,10.99
2018-04-29T05:28:57.463Z,10.99
2018-04-29T05:29:58.587Z,10.97
2018-04-29T05:30:58.757Z,10.99
2018-04-29T05:31:57.846Z,11.00
2018-04-29T05:32:57.823Z,11.05
2018-04-29T05:33:57.907Z,11.10
2018-04-29T05:34:58.037Z,11.14
2018-04-29T05:35:57.817Z,11.17
2018-04-29T05:36:58.092Z,11.23
2018-04-29T05:37:58.125Z,11.27
2018-04-29T05:38:57.815Z,11.44
2018-04-29T05:39:57.826Z,11.70
2018-04-29T05:40:58.696Z,12.00
2018-04-29T05:41:57.515Z,12.39
2018-04-29T05:42:58.246Z,12.83
2018-04-29T05:43:58.338Z,13.27
2018-04-29T05:44:58.001Z,13.62
2018-04-29T05:45:57.866Z,13.90
2018-04-29T05:46:57.943Z,14.20
2018-04-29T05:47:58.031Z,14.44
2018-04-29T05:49:19.265Z,14.82
2018-04-29T05:50:20.091Z,15.00
2018-04-29T05:51:20.287Z,15.17
2018-04-29T05:52:20.347Z,15.25
2018-04-29T05:53:20.224Z,15.39
2018-04-29T05:54:20.355Z,15.59
2018-04-29T05:55:20.196Z,15.91
2018-04-29T05:57:00.999Z,16.26
2018-04-29T05:58:01.857Z,16.57
2018-04-29T05:59:01.633Z,16.94
2018-04-29T06:00:02.405Z,17.12
2018-04-29T06:01:01.497Z,17.38
2018-04-29T06:02:01.224Z,17.65
2018-04-29T06:03:01.236Z,17.87
2018-04-29T06:04:01.951Z,18.10
2018-04-29T06:05:01.733Z,18.11
2018-04-29T06:06:01.616Z,18.31
2018-04-29T06:07:22.513Z,18.59
2018-04-29T06:08:22.748Z,18.65
2018-04-29T06:09:22.938Z,18.75
2018-04-29T06:10:22.619Z,18.74
2018-04-29T06:11:22.510Z,18.84
2018-04-29T06:12:23.174Z,18.83
2018-04-29T06:13:23.427Z,18.96
2018-04-29T06:14:22.354Z,19.08
2018-04-29T06:15:23.224Z,19.04
2018-04-29T06:16:23.078Z,19.19
2018-04-29T06:17:22.800Z,19.24
2018-04-29T06:18:22.808Z,19.39
2018-04-29T06:19:22.680Z,19.62
2018-04-29T06:20:23.015Z,19.51
2018-04-29T06:21:23.119Z,19.70
2018-04-29T06:22:43.639Z,19.94
2018-04-29T06:23:44.489Z,19.95
2018-04-29T06:25:05.351Z,20.10
2018-04-29T06:26:05.358Z,20.34
2018-04-29T06:27:05.340Z,20.60
2018-04-29T06:28:05.339Z,20.80
2018-04-29T06:29:05.252Z,20.95
2018-04-29T06:30:05.026Z,20.87
2018-04-29T06:31:05.321Z,20.56
2018-04-29T06:32:05.793Z,20.62
2018-04-29T06:33:05.764Z,20.72
2018-04-29T06:34:05.855Z,20.87
2018-04-29T06:35:05.750Z,20.97
2018-04-29T06:36:06.014Z,21.30
2018-04-29T06:37:06.100Z,21.61
2018-04-29T06:38:05.367Z,21.73
2018-04-29T06:39:05.229Z,21.82
2018-04-29T06:40:05.284Z,21.76
2018-04-29T06:41:05.231Z,21.60
2018-04-29T06:42:05.515Z,21.54
2018-04-29T06:43:05.629Z,21.58
2018-04-29T06:44:05.569Z,21.75
2018-04-29T06:45:05.701Z,21.82
2018-04-29T06:46:05.609Z,22.00
2018-04-29T06:47:05.776Z,22.14
2018-04-29T06:48:05.728Z,22.36
2018-04-29T06:49:05.800Z,22.51
2018-04-29T06:50:05.720Z,22.45
2018-04-29T06:51:06.164Z,22.39
2018-04-29T06:52:04.967Z,22.15
2018-04-29T06:53:05.283Z,21.92
2018-04-29T06:54:05.355Z,21.87
2018-04-29T06:55:47.303Z,21.40
2018-04-29T06:56:48.469Z,21.45
2018-04-29T06:57:47.333Z,21.48
2018-04-29T06:58:47.683Z,21.67
2018-04-29T06:59:47.549Z,21.91
2018-04-29T07:00:48.395Z,22.23
2018-04-29T07:01:47.562Z,22.02
2018-04-29T07:02:53.702Z,21.95
2018-04-29T07:03:47.994Z,21.99
2018-04-29T07:04:47.914Z,22.13
2018-04-29T07:05:47.872Z,22.29
2018-04-29T07:06:48.062Z,22.44
2018-04-29T07:07:48.381Z,22.11
2018-04-29T07:08:47.364Z,22.23
2018-04-29T07:09:47.604Z,22.33
2018-04-29T07:10:47.389Z,22.26
2018-04-29T07:11:47.366Z,22.43
2018-04-29T07:12:47.155Z,22.38
2018-04-29T07:13:47.027Z,22.17
2018-04-29T07:14:49.235Z,22.14
2018-04-29T07:15:47.446Z,22.38
2018-04-29T07:16:47.663Z,22.38
2018-04-29T07:17:47.660Z,22.44
2018-04-29T07:18:47.887Z,22.54
2018-04-29T07:20:09.094Z,22.80
2018-04-29T07:21:31.577Z,22.84
2018-04-29T07:22:31.791Z,22.17
2018-04-29T07:23:31.850Z,21.91
2018-04-29T07:24:53.086Z,21.93
2018-04-29T07:25:54.435Z,22.20
2018-04-29T07:26:53.264Z,21.92
2018-04-29T07:27:53.536Z,22.18
2018-04-29T07:28:54.300Z,22.15
2018-04-29T07:29:54.395Z,22.28
2018-04-29T07:30:53.897Z,22.50
2018-04-29T07:31:54.698Z,22.94
2018-04-29T07:32:54.084Z,23.40
2018-04-29T07:33:54.009Z,23.73
2018-04-29T07:34:54.276Z,23.71
2018-04-29T07:35:53.004Z,23.23
2018-04-29T07:36:54.179Z,23.54
2018-04-29T07:37:53.435Z,23.50
2018-04-29T07:38:53.639Z,23.50
2018-04-29T07:40:14.630Z,24.26
2018-04-29T07:41:14.860Z,24.77
2018-04-29T07:42:14.695Z,25.10
2018-04-29T07:43:14.488Z,25.36
2018-04-29T07:44:14.749Z,25.26
2018-04-29T07:45:14.917Z,24.88
2018-04-29T07:46:14.897Z,24.53
2018-04-29T07:47:14.897Z,23.95
2018-04-29T07:48:15.375Z,23.44
2018-04-29T07:49:57.205Z,23.03
2018-04-29T07:51:17.611Z,22.93
2018-04-29T07:52:19.057Z,22.99
2018-04-29T07:53:18.601Z,23.13
2018-04-29T07:54:23.184Z,22.85
2018-04-29T07:55:18.105Z,22.65
2018-04-29T07:56:39.325Z,23.17
2018-04-29T07:57:40.294Z,23.61
2018-04-29T07:58:40.213Z,24.05
2018-04-29T07:59:40.516Z,24.63
2018-04-29T08:00:39.823Z,25.06
2018-04-29T08:01:44.562Z,24.96
2018-04-29T08:02:39.323Z,24.91
2018-04-29T08:04:06.328Z,24.93
2018-04-29T08:05:06.412Z,24.57
2018-04-29T08:06:06.674Z,24.60
2018-04-29T08:07:06.603Z,24.80
2018-04-29T08:08:06.417Z,25.16
2018-04-29T08:09:06.641Z,25.46
2018-04-29T08:10:27.753Z,25.33
2018-04-29T08:11:28.202Z,24.85
2018-04-29T08:12:28.481Z,24.26
2018-04-29T08:13:28.396Z,23.76
2018-04-29T08:14:28.360Z,23.40
2018-04-29T08:15:28.460Z,23.12
2018-04-29T08:16:28.632Z,22.72
2018-04-29T08:17:27.986Z,22.18
2018-04-29T08:18:50.031Z,22.02
2018-04-29T08:19:50.618Z,21.89
2018-04-29T08:21:11.571Z,21.60
2018-04-29T08:22:11.951Z,21.43
2018-04-29T08:23:32.912Z,21.27
2018-04-29T08:24:55.930Z,21.09
2018-04-29T08:25:54.809Z,20.95
2018-04-29T08:26:55.127Z,20.81
2018-04-29T08:28:16.378Z,20.63
2018-04-29T08:29:16.662Z,20.51
2018-04-29T08:30:16.648Z,20.48
2018-04-29T08:31:17.386Z,20.51
2018-04-29T08:32:59.703Z,20.36
2018-04-29T08:34:01.384Z,20.32
2018-04-29T08:34:59.620Z,20.28
2018-04-29T08:36:00.082Z,20.40
2018-04-29T08:37:00.435Z,20.62
2018-04-29T08:38:00.035Z,20.70
2018-04-29T08:38:59.965Z,20.55
2018-04-29T08:40:00.482Z,20.37
2018-04-29T08:40:59.802Z,20.13
2018-04-29T08:42:00.369Z,19.91
2018-04-29T08:43:21.296Z,19.73
2018-04-29T08:44:21.602Z,19.47
2018-04-29T08:45:21.823Z,19.33
2018-04-29T08:46:21.335Z,19.09
2018-04-29T08:47:21.499Z,19.11
2018-04-29T08:48:21.901Z,19.08
2018-04-29T08:49:41.587Z,19.09
2018-04-29T08:50:43.095Z,19.15
2018-04-29T08:51:42.695Z,19.11
2018-04-29T08:52:41.615Z,18.92
2018-04-29T08:53:43.134Z,18.96
2018-04-29T08:54:42.568Z,18.99
2018-04-29T08:56:04.831Z,19.07
2018-04-29T08:57:05.050Z,19.11
2018-04-29T08:58:05.465Z,19.14
2018-04-29T08:59:04.955Z,19.21
2018-04-29T09:00:26.542Z,19.12
2018-04-29T09:01:25.655Z,19.18
2018-04-29T09:02:25.727Z,19.21
2018-04-29T09:03:25.833Z,19.11
2018-04-29T09:04:46.449Z,18.95
2018-04-29T09:05:46.486Z,18.86
2018-04-29T09:06:46.534Z,18.65
2018-04-29T09:07:46.310Z,18.47
2018-04-29T09:08:47.675Z,18.38
2018-04-29T09:10:07.498Z,18.28
2018-04-29T09:11:07.566Z,18.20
2018-04-29T09:12:07.494Z,18.10
2018-04-29T09:13:07.437Z,18.03
2018-04-29T09:14:08.336Z,17.86
2018-04-29T09:15:07.367Z,17.78
2018-04-29T09:16:08.469Z,17.67
2018-04-29T09:17:07.383Z,17.67
2018-04-29T09:18:07.779Z,17.68
2018-04-29T09:19:08.132Z,17.64
2018-04-29T09:20:49.937Z,17.41
2018-04-29T09:22:31.559Z,17.20
2018-04-29T09:23:31.395Z,17.14
2018-04-29T09:24:33.084Z,17.02
2018-04-29T09:25:32.422Z,16.90
2018-04-29T09:26:31.313Z,16.79
2018-04-29T09:27:52.240Z,16.74
2018-04-29T09:28:52.439Z,16.69
2018-04-29T09:30:13.900Z,16.68
2018-04-29T09:31:35.401Z,16.66
2018-04-29T09:32:35.375Z,16.65
2018-04-29T09:33:35.830Z,16.58
2018-04-29T09:34:36.877Z,16.57
2018-04-29T09:35:36.231Z,16.60
2018-04-29T09:36:35.801Z,16.60
2018-04-29T09:37:36.155Z,16.61
2018-04-29T09:38:56.114Z,16.60
2018-04-29T09:39:56.008Z,16.56
2018-04-29T09:41:18.697Z,16.47
2018-04-29T09:42:17.654Z,16.42
2018-04-29T09:43:17.696Z,16.46
2018-04-29T09:44:17.556Z,16.51
2018-04-29T09:45:38.644Z,16.66
2018-04-29T09:46:39.734Z,16.83
2018-04-29T09:47:39.018Z,17.05
2018-04-29T09:48:39.033Z,17.27
2018-04-29T09:49:38.945Z,17.44
2018-04-29T09:50:39.553Z,17.54
2018-04-29T09:51:39.044Z,17.59
2018-04-29T09:52:39.291Z,17.57
2018-04-29T09:53:38.329Z,17.56
2018-04-29T09:55:00.297Z,17.52
2018-04-29T09:56:00.717Z,17.57
2018-04-29T09:57:00.964Z,17.64
2018-04-29T09:58:01.084Z,17.64
2018-04-29T09:59:01.381Z,17.67
2018-04-29T10:00:00.501Z,17.71
2018-04-29T10:01:00.336Z,17.72
2018-04-29T10:02:00.763Z,17.60
2018-04-29T10:03:01.357Z,17.59
2018-04-29T10:04:01.682Z,17.63
2018-04-29T10:05:00.915Z,17.56
2018-04-29T10:06:01.362Z,17.41
2018-04-29T10:07:00.663Z,17.33
2018-04-29T10:08:01.121Z,17.33
2018-04-29T10:09:23.133Z,17.26
2018-04-29T10:10:23.738Z,17.22
2018-04-29T10:12:27.936Z,17.24
2018-04-29T10:13:28.600Z,17.12
2018-04-29T10:14:27.716Z,17.15
2018-04-29T10:15:27.736Z,17.23
2018-04-29T10:16:49.005Z,17.34
2018-04-29T10:17:49.868Z,17.44
2018-04-29T10:18:50.338Z,17.57
2018-04-29T10:19:49.707Z,17.64
2018-04-29T10:20:50.171Z,17.72
2018-04-29T10:21:49.263Z,17.83
2018-04-29T10:22:49.644Z,17.90
2018-04-29T10:24:11.161Z,17.94
2018-04-29T10:25:11.584Z,17.94
2018-04-29T10:26:32.841Z,17.83
2018-04-29T10:27:32.903Z,17.74
2018-04-29T10:28:33.192Z,17.68
2018-04-29T10:29:34.358Z,17.60
2018-04-29T10:30:35.323Z,17.52
2018-04-29T10:31:35.085Z,17.49
2018-04-29T10:32:33.384Z,17.42
2018-04-29T10:33:32.857Z,17.36
2018-04-29T10:35:16.887Z,17.24
2018-04-29T10:36:16.288Z,17.20
2018-04-29T10:37:15.631Z,17.09
2018-04-29T10:38:38.362Z,16.99
2018-04-29T10:39:38.882Z,16.93
2018-04-29T10:40:38.371Z,16.94
2018-04-29T10:41:58.749Z,16.94
2018-04-29T10:42:58.971Z,17.01
2018-04-29T10:43:59.946Z,17.04
2018-04-29T10:44:59.153Z,17.12
2018-04-29T10:46:22.525Z,17.24
2018-04-29T10:47:23.186Z,17.36
2018-04-29T10:48:23.087Z,17.67
2018-04-29T10:49:23.779Z,17.98
2018-04-29T10:50:23.229Z,18.23
2018-04-29T10:51:23.168Z,18.33
2018-04-29T10:52:24.279Z,18.44
2018-04-29T10:53:22.627Z,18.59
2018-04-29T10:54:44.551Z,18.78
2018-04-29T10:56:05.757Z,19.08
2018-04-29T10:57:26.599Z,19.29
2018-04-29T10:58:27.290Z,19.26
2018-04-29T10:59:26.726Z,19.27
2018-04-29T11:00:26.740Z,19.41
2018-04-29T11:01:27.216Z,19.52
2018-04-29T11:02:26.175Z,19.63
2018-04-29T11:03:28.190Z,19.73
2018-04-29T11:04:48.264Z,20.00
2018-04-29T11:05:47.612Z,20.24
2018-04-29T11:06:49.514Z,20.77
2018-04-29T11:07:48.129Z,21.30
2018-04-29T11:08:49.933Z,21.66
2018-04-29T11:09:48.375Z,22.11
2018-04-29T11:10:47.715Z,22.36
2018-04-29T11:11:48.396Z,22.45
2018-04-29T11:12:47.639Z,22.20
2018-04-29T11:13:48.731Z,22.15
2018-04-29T11:14:48.182Z,22.29
2018-04-29T11:16:08.893Z,22.87
2018-04-29T11:17:09.031Z,23.25
2018-04-29T11:18:09.423Z,23.27
2018-04-29T11:19:29.921Z,23.55
2018-04-29T11:20:31.240Z,23.88
2018-04-29T11:21:30.664Z,24.05
2018-04-29T11:23:13.211Z,24.40
2018-04-29T11:24:34.697Z,24.39
2018-04-29T11:25:35.158Z,24.60
2018-04-29T11:26:34.355Z,24.73
2018-04-29T11:27:34.496Z,24.36
2018-04-29T11:28:35.073Z,24.02
2018-04-29T11:29:35.548Z,23.66
2018-04-29T11:30:35.178Z,24.05
2018-04-29T11:31:56.447Z,24.60
2018-04-29T11:33:17.518Z,25.21
2018-04-29T11:34:17.845Z,25.96
2018-04-29T11:35:19.313Z,25.98
2018-04-29T11:36:38.501Z,25.81
2018-04-29T11:37:39.209Z,25.88
2018-04-29T11:38:39.227Z,25.83
2018-04-29T11:39:39.454Z,25.81
2018-04-29T11:40:38.952Z,26.06
2018-04-29T11:41:39.200Z,26.06
2018-04-29T11:42:40.598Z,26.16
2018-04-29T11:44:00.158Z,26.56
2018-04-29T11:45:00.561Z,26.80
2018-04-29T11:46:01.055Z,26.58
2018-04-29T11:47:00.387Z,26.40
2018-04-29T11:48:00.703Z,26.44
2018-04-29T11:49:01.563Z,26.29
2018-04-29T11:50:02.450Z,26.73
2018-04-29T11:51:00.786Z,26.92
2018-04-29T11:52:00.128Z,26.77
2018-04-29T11:53:01.199Z,26.96
2018-04-29T11:54:00.505Z,27.03
2018-04-29T11:55:00.428Z,27.02
2018-04-29T11:56:01.458Z,26.92
2018-04-29T11:57:01.075Z,26.95
2018-04-29T11:58:01.082Z,27.27
2018-04-29T11:59:00.013Z,27.74
2018-04-29T12:00:00.607Z,27.49
2018-04-29T12:01:00.993Z,27.83
2018-04-29T12:02:00.772Z,28.01
2018-04-29T12:03:00.198Z,28.15
2018-04-29T12:04:00.365Z,28.48
2018-04-29T12:05:01.020Z,28.48
2018-04-29T12:06:00.047Z,28.54
2018-04-29T12:07:01.022Z,28.12
2018-04-29T12:08:01.079Z,27.90
2018-04-29T12:09:00.483Z,27.87
2018-04-29T12:10:00.792Z,27.73
2018-04-29T12:11:21.306Z,28.59
2018-04-29T12:12:21.275Z,28.78
2018-04-29T12:13:21.674Z,28.22
2018-04-29T12:14:21.624Z,27.49
2018-04-29T12:15:21.026Z,27.35
2018-04-29T12:16:21.177Z,27.37
2018-04-29T12:17:21.533Z,27.26
2018-04-29T12:18:21.655Z,26.80
2018-04-29T12:19:21.127Z,26.10
2018-04-29T12:20:21.667Z,25.60
2018-04-29T12:21:42.423Z,25.48
2018-04-29T12:22:43.416Z,25.75
2018-04-29T12:23:42.876Z,25.85
2018-04-29T12:24:42.224Z,25.53
2018-04-29T12:25:42.182Z,25.46
2018-04-29T12:26:52.148Z,25.36
2018-04-29T12:27:42.241Z,25.18
2018-04-29T12:28:42.443Z,25.40
2018-04-29T12:29:42.483Z,25.60
2018-04-29T12:31:03.935Z,25.68
2018-04-29T12:32:04.455Z,25.73
2018-04-29T12:33:04.473Z,25.73
2018-04-29T12:34:04.247Z,25.53
2018-04-29T12:35:04.257Z,25.33
2018-04-29T12:36:04.436Z,25.33
2018-04-29T12:37:03.594Z,25.29
2018-04-29T12:38:04.064Z,25.08
2018-04-29T12:39:25.005Z,24.84
2018-04-29T12:40:25.933Z,24.85
2018-04-29T12:41:26.303Z,24.93
2018-04-29T12:42:25.562Z,25.07
2018-04-29T12:43:26.131Z,25.35
2018-04-29T12:44:25.397Z,25.18
2018-04-29T12:45:25.608Z,24.93
2018-04-29T12:46:26.383Z,24.78
2018-04-29T12:47:46.639Z,24.86
2018-04-29T12:48:47.051Z,24.68
2018-04-29T12:49:47.467Z,24.68
2018-04-29T12:51:08.993Z,24.78
2018-04-29T12:52:07.871Z,24.76
2018-04-29T12:53:07.783Z,24.81
2018-04-29T12:54:07.763Z,25.03
2018-04-29T12:55:07.806Z,25.01
2018-04-29T12:56:07.807Z,25.11
2018-04-29T12:57:29.146Z,24.88
2018-04-29T12:58:29.025Z,24.65
2018-04-29T12:59:29.372Z,24.55
2018-04-29T13:00:29.358Z,24.51
2018-04-29T13:01:29.462Z,24.42
2018-04-29T13:02:30.129Z,24.38
2018-04-29T13:03:29.012Z,24.39
2018-04-29T13:04:30.191Z,24.38
2018-04-29T13:05:29.286Z,24.11
2018-04-29T13:07:11.416Z,24.02
2018-04-29T13:08:12.207Z,23.99
2018-04-29T13:09:12.298Z,24.01
2018-04-29T13:10:12.158Z,24.13
2018-04-29T13:11:53.417Z,24.47
2018-04-29T13:12:54.561Z,24.48
2018-04-29T13:13:54.756Z,24.51
2018-04-29T13:14:54.232Z,25.11
2018-04-29T13:15:54.075Z,25.54
2018-04-29T13:16:53.928Z,25.81
2018-04-29T13:17:53.771Z,25.93
2018-04-29T13:18:54.417Z,25.87
2018-04-29T13:19:54.478Z,25.80
2018-04-29T13:20:54.896Z,25.66
2018-04-29T13:21:54.307Z,25.59
2018-04-29T13:22:54.596Z,25.80
2018-04-29T13:23:54.125Z,26.05
2018-04-29T13:24:55.086Z,26.36
2018-04-29T13:25:54.432Z,26.71
2018-04-29T13:26:55.340Z,26.84
2018-04-29T13:28:15.284Z,26.63
2018-04-29T13:29:16.799Z,26.29
2018-04-29T13:30:18.618Z,26.19
2018-04-29T13:31:18.301Z,25.99
2018-04-29T13:32:16.522Z,25.85
2018-04-29T13:33:21.534Z,25.99
2018-04-29T13:34:15.656Z,26.22
2018-04-29T13:35:15.961Z,26.26
2018-04-29T13:36:16.867Z,26.10
2018-04-29T13:37:18.481Z,26.02
2018-04-29T13:38:15.687Z,26.00
2018-04-29T13:39:37.388Z,26.51
2018-04-29T13:40:37.848Z,26.70
2018-04-29T13:41:37.767Z,26.89
2018-04-29T13:42:37.731Z,26.96
2018-04-29T13:43:37.285Z,26.96
2018-04-29T13:44:37.834Z,26.96
2018-04-29T13:45:38.296Z,27.00